Time;durP1;ratioP1;P1;durP2;ratioP2;P2;SDS_P1;SDS_P2;PMS_P1;PMS_P2;Temp;Humidity;BMP_temperature;BMP_pressure;BME280_temperature;BME280_humidity;BME280_pressure;Samples;Min_cycle;Max_cycle;Signal;HPM_P1;HPM_P2
2023/08/24 00:00:44;;;;;;;4.40;3.00;;;;;;;-128.00;-1.00;-1.00;18902;286;7504431;-34
2023/08/24 00:03:10;;;;;;;3.20;2.40;;;;;;;-128.00;-1.00;-1.00;18891;346;7504978;-34
2023/08/24 00:05:36;;;;;;;3.90;3.50;;;;;;;-128.00;-1.00;-1.00;18480;330;7504419;-32
2023/08/24 00:08:07;;;;;;;4.90;2.50;;;;;;;-128.00;-1.00;-1.00;18477;294;7506285;-30
2023/08/24 00:10:33;;;;;;;6.10;0.90;;;;;;;-128.00;-1.00;-1.00;18510;295;7506443;-31
2023/08/24 00:12:59;;;;;;;8.80;2.50;;;;;;;-128.00;-1.00;-1.00;18489;294;7505672;-35
2023/08/24 00:15:25;;;;;;;4.20;3.10;;;;;;;-128.00;-1.00;-1.00;18903;294;7504928;-31
2023/08/24 00:17:52;;;;;;;3.50;3.10;;;;;;;-128.00;-1.00;-1.00;18873;294;7505037;-31
2023/08/24 00:20:19;;;;;;;4.90;3.10;;;;;;;-128.00;-1.00;-1.00;18901;294;7505217;-34
2023/08/24 00:22:45;;;;;;;19.80;2.60;;;;;;;-128.00;-1.00;-1.00;18501;302;7504720;-31
2023/08/24 00:25:11;;;;;;;3.90;3.40;;;;;;;-128.00;-1.00;-1.00;18463;295;7504355;-35
2023/08/24 00:27:36;;;;;;;17.40;3.90;;;;;;;-128.00;-1.00;-1.00;18449;318;7506360;-32
2023/08/24 00:30:04;;;;;;;2.30;1.30;;;;;;;-128.00;-1.00;-1.00;18494;294;7504375;-31
2023/08/24 00:32:34;;;;;;;2.00;1.20;;;;;;;-128.00;-1.00;-1.00;18489;297;7506447;-30
2023/08/24 00:35:01;;;;;;;2.70;1.70;;;;;;;-128.00;-1.00;-1.00;18488;321;7504402;-35
2023/08/24 01:19:02;;;;;;;7.50;2.90;;;;;;;-99.91;18.73;19925.21;98238;298;1544363;-34
2023/08/24 01:21:28;;;;;;;2.00;1.80;;;;;;;-128.00;-1.00;-1.00;78027;299;7504040;-33
2023/08/24 01:24:08;;;;;;;5.80;2.90;;;;;;;-128.00;-1.00;-1.00;18481;298;7504546;-35
2023/08/24 01:26:33;;;;;;;2.10;2.00;;;;;;;-128.00;-1.00;-1.00;18451;349;7504276;-35
2023/08/24 01:28:59;;;;;;;2.80;1.70;;;;;;;-128.00;-1.00;-1.00;18479;321;7504438;-35
2023/08/24 01:31:25;;;;;;;7.80;3.70;;;;;;;-128.00;-1.00;-1.00;18843;349;7504388;-34
2023/08/24 01:33:51;;;;;;;3.70;2.40;;;;;;;-128.00;-1.00;-1.00;18876;298;7504223;-30
2023/08/24 01:36:19;;;;;;;2.80;2.00;;;;;;;-128.00;-1.00;-1.00;18441;300;7504647;-32
2023/08/24 01:38:46;;;;;;;3.80;1.90;;;;;;;-128.00;-1.00;-1.00;18444;298;7505284;-30
2023/08/24 01:41:28;;;;;;;2.30;2.00;;;;;;;-128.00;-1.00;-1.00;18470;298;7504417;-34
2023/08/24 01:43:54;;;;;;;1.50;1.30;;;;;;;-128.00;-1.00;-1.00;18486;298;7506058;-30
2023/08/24 01:46:21;;;;;;;1.50;0.90;;;;;;;-128.00;-1.00;-1.00;18456;298;7504818;-30
2023/08/24 01:48:47;;;;;;;4.30;1.10;;;;;;;-128.00;-1.00;-1.00;18471;298;7504315;-34
2023/08/24 01:51:13;;;;;;;2.10;1.80;;;;;;;-128.00;-1.00;-1.00;18878;298;7505337;-30
2023/08/24 01:53:40;;;;;;;2.20;1.50;;;;;;;-128.00;-1.00;-1.00;18880;298;7504780;-30
2023/08/24 01:56:11;;;;;;;3.80;1.80;;;;;;;-128.00;-1.00;-1.00;18448;339;7505891;-30
2023/08/24 01:58:36;;;;;;;2.90;1.40;;;;;;;-128.00;-1.00;-1.00;18463;298;7505645;-34
2023/08/24 02:01:02;;;;;;;1.10;1.00;;;;;;;-128.00;-1.00;-1.00;18455;298;7506218;-34
2023/08/24 02:03:28;;;;;;;5.70;2.60;;;;;;;-128.00;-1.00;-1.00;18462;342;7505458;-29
2023/08/24 02:05:54;;;;;;;4.30;2.90;;;;;;;-128.00;-1.00;-1.00;18463;298;7506454;-34
2023/08/24 02:08:19;;;;;;;9.40;2.80;;;;;;;-128.00;-1.00;-1.00;18439;299;7506456;-31
2023/08/24 02:10:45;;;;;;;3.60;2.30;;;;;;;-128.00;-1.00;-1.00;18488;298;7504593;-30
2023/08/24 02:13:11;;;;;;;4.00;2.50;;;;;;;-128.00;-1.00;-1.00;18467;298;7504783;-34
2023/08/24 02:15:39;;;;;;;3.30;3.00;;;;;;;-128.00;-1.00;-1.00;18452;298;7504602;-30
2023/08/24 02:18:05;;;;;;;8.20;3.20;;;;;;;-128.00;-1.00;-1.00;18474;297;7504485;-30
2023/08/24 02:20:35;;;;;;;3.30;3.00;;;;;;;-128.00;-1.00;-1.00;18482;338;7505560;-33
2023/08/24 02:23:00;;;;;;;2.70;2.30;;;;;;;-128.00;-1.00;-1.00;18486;298;7504611;-30
2023/08/24 02:25:26;;;;;;;5.80;3.30;;;;;;;-128.00;-1.00;-1.00;18884;349;7505098;-30
2023/08/24 02:27:52;;;;;;;4.30;3.60;;;;;;;-128.00;-1.00;-1.00;18855;298;7504798;-34
2023/08/24 02:30:18;;;;;;;4.00;3.40;;;;;;;-128.00;-1.00;-1.00;18844;349;7504647;-34
2023/08/24 02:32:45;;;;;;;4.70;2.70;;;;;;;-128.00;-1.00;-1.00;18911;297;7505816;-37
2023/08/24 02:35:11;;;;;;;6.60;3.20;;;;;;;-128.00;-1.00;-1.00;18483;309;7505514;-31
2023/08/24 02:37:36;;;;;;;2.30;2.10;;;;;;;-128.00;-1.00;-1.00;18486;298;7505941;-33
2023/08/24 02:40:03;;;;;;;5.10;3.90;;;;;;;-128.00;-1.00;-1.00;18866;297;7504300;-31
2023/08/24 02:42:33;;;;;;;4.70;3.20;;;;;;;-128.00;-1.00;-1.00;18462;301;7506214;-35
2023/08/24 02:44:58;;;;;;;2.90;2.60;;;;;;;-128.00;-1.00;-1.00;18513;298;7504615;-35
2023/08/24 02:47:25;;;;;;;3.50;3.00;;;;;;;-128.00;-1.00;-1.00;18872;297;7504816;-35
2023/08/24 02:49:51;;;;;;;4.50;3.50;;;;;;;-128.00;-1.00;-1.00;18879;309;7504887;-31
2023/08/24 02:52:17;;;;;;;3.00;2.70;;;;;;;-128.00;-1.00;-1.00;18454;297;7504837;-31
2023/08/24 02:54:43;;;;;;;3.40;2.60;;;;;;;-128.00;-1.00;-1.00;18463;298;7504560;-31
2023/08/24 02:57:09;;;;;;;3.50;2.50;;;;;;;-128.00;-1.00;-1.00;18478;349;7504304;-32
2023/08/24 02:59:34;;;;;;;3.00;2.60;;;;;;;-128.00;-1.00;-1.00;18458;297;7506023;-34
2023/08/24 03:02:00;;;;;;;8.40;3.80;;;;;;;-128.00;-1.00;-1.00;18438;298;7504637;-34
2023/08/24 03:04:26;;;;;;;3.10;2.30;;;;;;;-128.00;-1.00;-1.00;18476;303;7504253;-30
2023/08/24 03:06:52;;;;;;;2.70;1.80;;;;;;;-128.00;-1.00;-1.00;18479;297;7505107;-34
2023/08/24 03:09:17;;;;;;;3.00;2.70;;;;;;;-128.00;-1.00;-1.00;18460;299;7506005;-31
2023/08/24 03:11:43;;;;;;;3.20;1.50;;;;;;;-128.00;-1.00;-1.00;18472;297;7504480;-36
2023/08/24 03:14:09;;;;;;;7.20;3.20;;;;;;;-128.00;-1.00;-1.00;18481;297;7505654;-32
2023/08/24 03:16:35;;;;;;;2.20;1.80;;;;;;;-128.00;-1.00;-1.00;18486;297;7504909;-32
2023/08/24 03:19:00;;;;;;;3.10;2.80;;;;;;;-128.00;-1.00;-1.00;18476;298;7504517;-32
2023/08/24 03:21:26;;;;;;;7.70;3.30;;;;;;;-128.00;-1.00;-1.00;18889;298;7504514;-33
2023/08/24 03:23:52;;;;;;;2.20;2.00;;;;;;;-128.00;-1.00;-1.00;18867;299;7505504;-33
2023/08/24 03:26:20;;;;;;;4.70;3.20;;;;;;;-128.00;-1.00;-1.00;18867;298;7504576;-35
2023/08/24 03:28:45;;;;;;;5.50;3.20;;;;;;;-128.00;-1.00;-1.00;18476;297;7505146;-35
2023/08/24 03:31:11;;;;;;;3.70;3.20;;;;;;;-128.00;-1.00;-1.00;18471;297;7504575;-35
2023/08/24 03:33:37;;;;;;;3.10;2.80;;;;;;;-128.00;-1.00;-1.00;18479;299;7505920;-34
2023/08/24 03:36:03;;;;;;;3.70;3.10;;;;;;;-128.00;-1.00;-1.00;18469;349;7504596;-35
2023/08/24 03:38:28;;;;;;;3.30;2.40;;;;;;;-128.00;-1.00;-1.00;18463;349;7505214;-34
2023/08/24 03:41:02;;;;;;;2.80;2.00;;;;;;;-128.00;-1.00;-1.00;18473;297;7504295;-35
2023/08/24 03:43:32;;;;;;;3.10;2.20;;;;;;;-128.00;-1.00;-1.00;18492;298;7504613;-34
2023/08/24 03:45:57;;;;;;;5.00;3.50;;;;;;;-128.00;-1.00;-1.00;18467;349;7506486;-30
2023/08/24 03:48:24;;;;;;;7.20;3.40;;;;;;;-128.00;-1.00;-1.00;18897;349;7504305;-31
2023/08/24 03:50:50;;;;;;;7.40;3.10;;;;;;;-128.00;-1.00;-1.00;18855;297;7504989;-31
2023/08/24 03:53:16;;;;;;;2.90;2.50;;;;;;;-128.00;-1.00;-1.00;18862;305;7504372;-35
2023/08/24 03:55:42;;;;;;;3.90;2.50;;;;;;;-128.00;-1.00;-1.00;18852;298;7504221;-30
2023/08/24 03:58:08;;;;;;;5.10;3.20;;;;;;;-128.00;-1.00;-1.00;18875;297;7505031;-35
2023/08/24 04:00:34;;;;;;;5.50;4.00;;;;;;;-128.00;-1.00;-1.00;18881;297;7505096;-33
2023/08/24 04:03:02;;;;;;;3.10;2.80;;;;;;;-128.00;-1.00;-1.00;18889;298;7505397;-35
2023/08/24 04:05:27;;;;;;;2.00;1.60;;;;;;;-128.00;-1.00;-1.00;18460;298;7505654;-35
2023/08/24 04:07:53;;;;;;;4.10;2.90;;;;;;;-128.00;-1.00;-1.00;18891;297;7505005;-34
2023/08/24 04:10:20;;;;;;;3.70;2.70;;;;;;;-128.00;-1.00;-1.00;18893;349;7504961;-31
2023/08/24 04:12:46;;;;;;;5.30;3.20;;;;;;;-128.00;-1.00;-1.00;18877;313;7505520;-31
2023/08/24 04:15:12;;;;;;;3.10;2.40;;;;;;;-128.00;-1.00;-1.00;18864;297;7504364;-34
2023/08/24 04:17:38;;;;;;;2.60;2.20;;;;;;;-128.00;-1.00;-1.00;18858;297;7504716;-35
2023/08/24 04:20:06;;;;;;;3.40;3.00;;;;;;;-128.00;-1.00;-1.00;18897;297;7505933;-31
2023/08/24 04:22:32;;;;;;;5.20;3.50;;;;;;;-128.00;-1.00;-1.00;18478;298;7505880;-31
2023/08/24 04:24:57;;;;;;;7.10;3.70;;;;;;;-128.00;-1.00;-1.00;18449;297;7504029;-35
2023/08/24 04:27:23;;;;;;;4.00;3.20;;;;;;;-128.00;-1.00;-1.00;18489;341;7505056;-35
2023/08/24 04:29:49;;;;;;;4.70;4.00;;;;;;;-128.00;-1.00;-1.00;18869;297;7504635;-31
2023/08/24 04:32:15;;;;;;;4.10;3.20;;;;;;;-128.00;-1.00;-1.00;18880;298;7504423;-35
2023/08/24 04:34:41;;;;;;;5.10;4.20;;;;;;;-128.00;-1.00;-1.00;18862;298;7504270;-33
2023/08/24 04:37:08;;;;;;;5.60;3.80;;;;;;;-128.00;-1.00;-1.00;18866;298;7504495;-32
2023/08/24 04:39:35;;;;;;;4.90;3.70;;;;;;;-128.00;-1.00;-1.00;18870;298;7506036;-31
2023/08/24 04:42:02;;;;;;;4.40;3.60;;;;;;;-128.00;-1.00;-1.00;18462;297;7504378;-31
2023/08/24 04:44:27;;;;;;;5.10;4.40;;;;;;;-128.00;-1.00;-1.00;18438;299;7504957;-30
2023/08/24 04:46:54;;;;;;;3.70;3.10;;;;;;;-128.00;-1.00;-1.00;18445;298;7504961;-34
2023/08/24 04:49:20;;;;;;;4.70;3.80;;;;;;;-128.00;-1.00;-1.00;18461;325;7505063;-30
2023/08/24 04:51:46;;;;;;;8.60;4.00;;;;;;;-128.00;-1.00;-1.00;18884;298;7505359;-33
2023/08/24 04:54:12;;;;;;;5.30;4.30;;;;;;;-128.00;-1.00;-1.00;18893;297;7505250;-31
2023/08/24 04:56:38;;;;;;;4.60;3.70;;;;;;;-128.00;-1.00;-1.00;18839;297;7505099;-31
2023/08/24 04:59:04;;;;;;;5.00;4.20;;;;;;;-128.00;-1.00;-1.00;18865;298;7504385;-31
2023/08/24 05:01:31;;;;;;;7.20;4.20;;;;;;;-128.00;-1.00;-1.00;18866;297;7504319;-31
2023/08/24 05:03:57;;;;;;;5.30;3.40;;;;;;;-128.00;-1.00;-1.00;18449;298;7505514;-31
2023/08/24 05:06:23;;;;;;;3.10;2.80;;;;;;;-128.00;-1.00;-1.00;18471;297;7505844;-35
2023/08/24 05:08:48;;;;;;;6.70;3.40;;;;;;;-128.00;-1.00;-1.00;18465;309;7504306;-32
2023/08/24 05:11:17;;;;;;;4.60;3.90;;;;;;;-128.00;-1.00;-1.00;18882;297;7505959;-36
2023/08/24 05:13:43;;;;;;;4.60;3.90;;;;;;;-128.00;-1.00;-1.00;18452;298;7504709;-32
2023/08/24 05:16:09;;;;;;;3.60;3.10;;;;;;;-128.00;-1.00;-1.00;18459;298;7504864;-31
2023/08/24 05:18:36;;;;;;;4.30;3.40;;;;;;;-128.00;-1.00;-1.00;18453;298;7506334;-35
2023/08/24 05:21:03;;;;;;;4.50;3.60;;;;;;;-128.00;-1.00;-1.00;18458;298;7504825;-32
2023/08/24 05:23:29;;;;;;;5.30;3.70;;;;;;;-128.00;-1.00;-1.00;18478;342;7504564;-31
2023/08/24 05:25:59;;;;;;;5.50;3.20;;;;;;;-128.00;-1.00;-1.00;18470;309;7504541;-31
2023/08/24 05:28:25;;;;;;;3.00;2.70;;;;;;;-128.00;-1.00;-1.00;18448;321;7506300;-35
2023/08/24 05:30:52;;;;;;;4.20;3.20;;;;;;;-128.00;-1.00;-1.00;18461;301;7505831;-35
2023/08/24 05:33:19;;;;;;;3.10;2.70;;;;;;;-128.00;-1.00;-1.00;18442;333;7505323;-32
2023/08/24 05:35:44;;;;;;;9.70;3.20;;;;;;;-128.00;-1.00;-1.00;18461;342;7504755;-37
2023/08/24 05:38:10;;;;;;;4.80;3.40;;;;;;;-128.00;-1.00;-1.00;18851;298;7504712;-31
2023/08/24 05:40:37;;;;;;;4.80;3.30;;;;;;;-128.00;-1.00;-1.00;18871;322;7504841;-35
2023/08/24 05:43:03;;;;;;;13.00;3.80;;;;;;;-128.00;-1.00;-1.00;18467;302;7504849;-35
2023/08/24 05:45:28;;;;;;;4.20;3.80;;;;;;;-128.00;-1.00;-1.00;18437;297;7505225;-32
2023/08/24 05:47:55;;;;;;;4.40;3.50;;;;;;;-128.00;-1.00;-1.00;18850;285;7504660;-36
2023/08/24 05:50:21;;;;;;;4.90;3.50;;;;;;;-128.00;-1.00;-1.00;18853;298;7504703;-36
2023/08/24 05:52:47;;;;;;;12.10;3.70;;;;;;;-128.00;-1.00;-1.00;18856;309;7505264;-32
2023/08/24 05:55:13;;;;;;;4.70;3.30;;;;;;;-128.00;-1.00;-1.00;18866;297;7504568;-36
2023/08/24 05:57:40;;;;;;;5.30;4.00;;;;;;;-128.00;-1.00;-1.00;18857;298;7506256;-36
2023/08/24 06:00:09;;;;;;;7.10;3.90;;;;;;;-128.00;-1.00;-1.00;18873;350;7504961;-36
2023/08/24 06:02:36;;;;;;;4.70;3.00;;;;;;;-128.00;-1.00;-1.00;18465;298;7504633;-37
2023/08/24 06:05:02;;;;;;;9.20;2.20;;;;;;;-128.00;-1.00;-1.00;18470;286;7506224;-36
2023/08/24 06:07:29;;;;;;;4.80;2.70;;;;;;;-128.00;-1.00;-1.00;18511;309;7505793;-37
2023/08/24 06:09:56;;;;;;;6.20;2.60;;;;;;;-128.00;-1.00;-1.00;18454;298;7504789;-36
2023/08/24 06:12:22;;;;;;;3.10;2.50;;;;;;;-128.00;-1.00;-1.00;18464;298;7506446;-31
2023/08/24 06:14:48;;;;;;;13.20;3.40;;;;;;;-128.00;-1.00;-1.00;18476;309;7506387;-31
2023/08/24 06:17:14;;;;;;;7.60;2.50;;;;;;;-128.00;-1.00;-1.00;18870;301;7504240;-32
2023/08/24 06:19:42;;;;;;;3.90;2.60;;;;;;;-128.00;-1.00;-1.00;18443;298;7504880;-35
2023/08/24 06:22:08;;;;;;;3.30;2.30;;;;;;;-128.00;-1.00;-1.00;18459;297;7504721;-37
2023/08/24 06:24:35;;;;;;;4.40;2.60;;;;;;;-128.00;-1.00;-1.00;18870;286;7504221;-33
2023/08/24 06:27:00;;;;;;;2.50;1.90;;;;;;;-128.00;-1.00;-1.00;18497;298;7505107;-32
2023/08/24 06:29:28;;;;;;;3.10;2.30;;;;;;;-128.00;-1.00;-1.00;18451;349;7505071;-32
2023/08/24 06:31:54;;;;;;;3.60;2.70;;;;;;;-128.00;-1.00;-1.00;18503;297;7505002;-32
2023/08/24 06:34:19;;;;;;;2.70;2.30;;;;;;;-128.00;-1.00;-1.00;18475;322;7504593;-36
2023/08/24 06:36:45;;;;;;;3.90;2.40;;;;;;;-128.00;-1.00;-1.00;18877;325;7504875;-31
2023/08/24 06:39:12;;;;;;;3.30;2.30;;;;;;;-128.00;-1.00;-1.00;18862;309;7504320;-33
2023/08/24 06:41:38;;;;;;;4.20;2.20;;;;;;;-128.00;-1.00;-1.00;18469;298;7505957;-37
2023/08/24 06:44:04;;;;;;;2.80;2.20;;;;;;;-128.00;-1.00;-1.00;18442;298;7504779;-36
2023/08/24 06:46:29;;;;;;;12.20;2.20;;;;;;;-128.00;-1.00;-1.00;18468;297;7504831;-32
2023/08/24 06:48:55;;;;;;;3.40;2.60;;;;;;;-128.00;-1.00;-1.00;18456;299;7506050;-36
2023/08/24 06:51:21;;;;;;;3.80;2.40;;;;;;;-128.00;-1.00;-1.00;18865;299;7504300;-36
2023/08/24 06:53:48;;;;;;;6.80;2.60;;;;;;;-128.00;-1.00;-1.00;18854;339;7505458;-33
2023/08/24 06:56:14;;;;;;;4.50;2.90;;;;;;;-128.00;-1.00;-1.00;18490;297;7506030;-36
2023/08/24 06:58:40;;;;;;;2.90;2.20;;;;;;;-128.00;-1.00;-1.00;18480;299;7504800;-32
2023/08/24 07:01:07;;;;;;;3.40;1.80;;;;;;;-128.00;-1.00;-1.00;18467;298;7506494;-33
2023/08/24 07:03:33;;;;;;;2.50;2.10;;;;;;;-128.00;-1.00;-1.00;18468;297;7504843;-36
2023/08/24 07:05:59;;;;;;;3.60;2.30;;;;;;;-128.00;-1.00;-1.00;18508;297;7506256;-36
2023/08/24 07:08:25;;;;;;;4.40;2.00;;;;;;;-128.00;-1.00;-1.00;18461;297;7506613;-36
2023/08/24 07:10:50;;;;;;;1.80;1.60;;;;;;;-128.00;-1.00;-1.00;18476;298;7504500;-36
2023/08/24 07:13:16;;;;;;;2.20;1.90;;;;;;;-128.00;-1.00;-1.00;18465;297;7504323;-36
2023/08/24 07:15:42;;;;;;;2.00;1.80;;;;;;;-128.00;-1.00;-1.00;18494;338;7504630;-32
2023/08/24 07:18:08;;;;;;;2.40;1.90;;;;;;;-128.00;-1.00;-1.00;18451;349;7504814;-32
2023/08/24 07:20:35;;;;;;;2.90;2.00;;;;;;;-128.00;-1.00;-1.00;18453;297;7506324;-36
2023/08/24 07:23:01;;;;;;;1.20;1.10;;;;;;;-128.00;-1.00;-1.00;18465;322;7504954;-36
2023/08/24 07:25:30;;;;;;;3.10;1.90;;;;;;;-128.00;-1.00;-1.00;18440;327;7504972;-37
2023/08/24 07:27:58;;;;;;;2.70;2.30;;;;;;;-128.00;-1.00;-1.00;18464;297;7506248;-36
2023/08/24 07:30:26;;;;;;;3.00;1.40;;;;;;;-128.00;-1.00;-1.00;18479;298;7505285;-33
2023/08/24 07:32:53;;;;;;;3.70;1.70;;;;;;;-128.00;-1.00;-1.00;18464;297;7506090;-36
2023/08/24 07:35:20;;;;;;;4.60;2.20;;;;;;;-128.00;-1.00;-1.00;18468;298;7505984;-36
2023/08/24 07:37:50;;;;;;;2.80;2.00;;;;;;;-128.00;-1.00;-1.00;18474;297;7505901;-32
2023/08/24 07:40:16;;;;;;;4.50;1.90;;;;;;;-128.00;-1.00;-1.00;18455;309;7504425;-36
2023/08/24 07:42:44;;;;;;;2.30;1.60;;;;;;;-128.00;-1.00;-1.00;18461;299;7505049;-33
2023/08/24 07:45:10;;;;;;;2.20;1.80;;;;;;;-128.00;-1.00;-1.00;18462;297;7506000;-32
2023/08/24 07:47:35;;;;;;;3.40;2.00;;;;;;;-128.00;-1.00;-1.00;18488;297;7505049;-32
2023/08/24 07:50:01;;;;;;;1.10;0.90;;;;;;;-128.00;-1.00;-1.00;18453;341;7504374;-36
2023/08/24 07:52:28;;;;;;;4.00;2.30;;;;;;;-128.00;-1.00;-1.00;18442;298;7506047;-36
2023/08/24 07:54:55;;;;;;;2.30;1.40;;;;;;;-128.00;-1.00;-1.00;18493;298;7506055;-35
2023/08/24 07:57:21;;;;;;;2.70;2.00;;;;;;;-128.00;-1.00;-1.00;18464;297;7506317;-31
2023/08/24 07:59:46;;;;;;;4.30;1.90;;;;;;;-128.00;-1.00;-1.00;18459;321;7506873;-32
2023/08/24 08:02:15;;;;;;;1.40;1.20;;;;;;;-128.00;-1.00;-1.00;18478;297;7505355;-35
2023/08/24 08:04:42;;;;;;;3.40;1.50;;;;;;;-128.00;-1.00;-1.00;18487;297;7504825;-35
2023/08/24 08:07:07;;;;;;;1.70;1.20;;;;;;;-128.00;-1.00;-1.00;18449;297;7505016;-35
2023/08/24 08:09:33;;;;;;;2.60;2.00;;;;;;;-128.00;-1.00;-1.00;18849;350;7504382;-36
2023/08/24 08:11:59;;;;;;;3.20;2.00;;;;;;;-128.00;-1.00;-1.00;18843;297;7504423;-32
2023/08/24 08:14:26;;;;;;;2.30;1.70;;;;;;;-128.00;-1.00;-1.00;18863;297;7504341;-36
2023/08/24 08:16:52;;;;;;;1.80;1.70;;;;;;;-128.00;-1.00;-1.00;18478;349;7505652;-35
2023/08/24 08:19:19;;;;;;;2.70;2.30;;;;;;;-128.00;-1.00;-1.00;18901;297;7504442;-36
2023/08/24 08:21:45;;;;;;;4.50;1.70;;;;;;;-128.00;-1.00;-1.00;18448;297;7504301;-32
2023/08/24 08:24:12;;;;;;;2.50;1.40;;;;;;;-128.00;-1.00;-1.00;18844;298;7504961;-36
2023/08/24 08:26:38;;;;;;;2.40;1.50;;;;;;;-128.00;-1.00;-1.00;18488;341;7506313;-31
2023/08/24 08:29:03;;;;;;;4.10;2.30;;;;;;;-128.00;-1.00;-1.00;18499;297;7504915;-35
2023/08/24 08:31:30;;;;;;;6.80;1.50;;;;;;;-128.00;-1.00;-1.00;18441;305;7504834;-35
2023/08/24 08:33:55;;;;;;;2.10;1.40;;;;;;;-128.00;-1.00;-1.00;18467;338;7506470;-36
2023/08/24 08:36:22;;;;;;;2.60;2.00;;;;;;;-128.00;-1.00;-1.00;18912;297;7504514;-32
2023/08/24 08:38:49;;;;;;;4.60;1.50;;;;;;;-128.00;-1.00;-1.00;18883;286;7505029;-36
2023/08/24 08:41:14;;;;;;;1.20;1.10;;;;;;;-128.00;-1.00;-1.00;18462;298;7506049;-33
2023/08/24 08:43:40;;;;;;;1.70;1.50;;;;;;;-128.00;-1.00;-1.00;18456;338;7504536;-36
2023/08/24 08:46:06;;;;;;;3.40;2.00;;;;;;;-128.00;-1.00;-1.00;18453;289;7505280;-33
2023/08/24 08:48:31;;;;;;;2.40;1.10;;;;;;;-128.00;-1.00;-1.00;18460;298;7504724;-33
2023/08/24 08:50:57;;;;;;;8.80;2.10;;;;;;;-128.00;-1.00;-1.00;18446;297;7504725;-35
2023/08/24 08:53:23;;;;;;;1.30;1.20;;;;;;;-128.00;-1.00;-1.00;18484;298;7505849;-33
2023/08/24 08:55:51;;;;;;;2.80;1.70;;;;;;;-128.00;-1.00;-1.00;18457;321;7504686;-32
2023/08/24 08:58:16;;;;;;;3.10;1.80;;;;;;;-128.00;-1.00;-1.00;18467;290;7506190;-36
2023/08/24 09:00:43;;;;;;;1.50;1.40;;;;;;;-128.00;-1.00;-1.00;18898;298;7505046;-32
2023/08/24 09:03:09;;;;;;;3.60;1.90;;;;;;;-128.00;-1.00;-1.00;18886;298;7504099;-36
2023/08/24 09:05:37;;;;;;;4.10;0.90;;;;;;;-128.00;-1.00;-1.00;18443;298;7504830;-35
2023/08/24 09:08:03;;;;;;;2.10;1.20;;;;;;;-128.00;-1.00;-1.00;18455;298;7503960;-36
2023/08/24 09:10:28;;;;;;;2.00;1.40;;;;;;;-128.00;-1.00;-1.00;18474;297;7505868;-32
2023/08/24 09:12:54;;;;;;;2.50;1.60;;;;;;;-128.00;-1.00;-1.00;18445;297;7504340;-32
2023/08/24 09:15:27;;;;;;;3.10;1.10;;;;;;;-128.00;-1.00;-1.00;18456;321;7504708;-31
2023/08/24 09:17:56;;;;;;;1.60;1.30;;;;;;;-128.00;-1.00;-1.00;18450;298;7504294;-32
2023/08/24 09:20:22;;;;;;;0.70;0.60;;;;;;;-128.00;-1.00;-1.00;18464;286;7505961;-33
2023/08/24 09:22:49;;;;;;;2.10;1.30;;;;;;;-128.00;-1.00;-1.00;17993;297;7506208;-36
2023/08/24 09:25:15;;;;;;;1.80;1.20;;;;;;;-128.00;-1.00;-1.00;18870;298;7504353;-32
2023/08/24 09:27:41;;;;;;;2.80;0.90;;;;;;;-128.00;-1.00;-1.00;18878;297;7504192;-36
2023/08/24 09:30:08;;;;;;;2.90;1.00;;;;;;;-128.00;-1.00;-1.00;18860;298;7504920;-36
2023/08/24 09:32:34;;;;;;;0.90;0.70;;;;;;;-128.00;-1.00;-1.00;18473;297;7504819;-36
2023/08/24 09:35:07;;;;;;;1.80;0.90;;;;;;;-128.00;-1.00;-1.00;18464;297;7505955;-32
2023/08/24 09:37:33;;;;;;;1.80;0.80;;;;;;;-128.00;-1.00;-1.00;18459;297;7506155;-35
2023/08/24 09:40:07;;;;;;;1.70;1.00;;;;;;;-128.00;-1.00;-1.00;18468;298;7506250;-36
2023/08/24 09:42:45;;;;;;;2.10;1.10;;;;;;;-128.00;-1.00;-1.00;18492;341;7504811;-36
2023/08/24 09:45:12;;;;;;;1.90;0.80;;;;;;;-128.00;-1.00;-1.00;18469;297;7504648;-36
2023/08/24 09:47:37;;;;;;;2.70;1.00;;;;;;;-128.00;-1.00;-1.00;18449;298;7504835;-36
2023/08/24 09:50:04;;;;;;;1.90;0.90;;;;;;;-128.00;-1.00;-1.00;18449;299;7504670;-36
2023/08/24 09:52:32;;;;;;;2.70;1.50;;;;;;;-128.00;-1.00;-1.00;18477;298;7504834;-36
2023/08/24 09:55:00;;;;;;;2.30;1.20;;;;;;;-128.00;-1.00;-1.00;18453;297;7506328;-36
2023/08/24 09:57:26;;;;;;;0.90;0.90;;;;;;;-128.00;-1.00;-1.00;18476;298;7505140;-36
2023/08/24 09:59:52;;;;;;;2.70;1.30;;;;;;;-128.00;-1.00;-1.00;18863;298;7505167;-32
2023/08/24 10:02:21;;;;;;;0.90;0.80;;;;;;;-128.00;-1.00;-1.00;18441;288;7504947;-32
2023/08/24 10:04:48;;;;;;;1.10;0.80;;;;;;;-128.00;-1.00;-1.00;18460;298;7505040;-32
2023/08/24 10:07:15;;;;;;;1.60;1.50;;;;;;;-128.00;-1.00;-1.00;18475;297;7504446;-32
2023/08/24 10:09:45;;;;;;;2.40;0.80;;;;;;;-128.00;-1.00;-1.00;18470;321;7506247;-36
2023/08/24 10:12:11;;;;;;;0.70;0.50;;;;;;;-128.00;-1.00;-1.00;18464;298;7505008;-32
2023/08/24 10:14:47;;;;;;;1.30;1.00;;;;;;;-128.00;-1.00;-1.00;18480;298;7505852;-36
2023/08/24 10:17:13;;;;;;;1.10;1.00;;;;;;;-128.00;-1.00;-1.00;18472;298;7505763;-31
2023/08/24 10:19:40;;;;;;;0.70;0.60;;;;;;;-128.00;-1.00;-1.00;18419;300;7504575;-35
2023/08/24 10:22:06;;;;;;;0.90;0.80;;;;;;;-128.00;-1.00;-1.00;18466;298;7505939;-31
2023/08/24 10:24:32;;;;;;;2.60;1.10;;;;;;;-128.00;-1.00;-1.00;18910;297;7504127;-35
2023/08/24 10:26:58;;;;;;;2.80;1.00;;;;;;;-128.00;-1.00;-1.00;18490;349;7505808;-36
2023/08/24 10:29:24;;;;;;;1.10;0.70;;;;;;;-128.00;-1.00;-1.00;18894;317;7504364;-36
2023/08/24 10:31:51;;;;;;;1.40;0.90;;;;;;;-128.00;-1.00;-1.00;18866;297;7504821;-36
2023/08/24 10:34:17;;;;;;;2.40;1.10;;;;;;;-128.00;-1.00;-1.00;18871;297;7504316;-36
2023/08/24 10:36:43;;;;;;;2.90;1.30;;;;;;;-128.00;-1.00;-1.00;18867;297;7504983;-33
2023/08/24 10:39:10;;;;;;;5.40;1.40;;;;;;;-128.00;-1.00;-1.00;18840;298;7504210;-32
2023/08/24 10:41:48;;;;;;;6.40;1.50;;;;;;;-128.00;-1.00;-1.00;18463;297;7505854;-32
2023/08/24 10:44:22;;;;;;;2.80;1.00;;;;;;;-128.00;-1.00;-1.00;18474;313;7506048;-32
2023/08/24 10:47:07;;;;;;;1.20;0.80;;;;;;;-128.00;-1.00;-1.00;18454;297;7505060;-34
2023/08/24 10:49:32;;;;;;;1.00;0.80;;;;;;;-128.00;-1.00;-1.00;18470;297;7504542;-31
2023/08/24 10:52:15;;;;;;;0.80;0.80;;;;;;;-128.00;-1.00;-1.00;18457;297;7504451;-35
2023/08/24 10:54:44;;;;;;;7.10;0.90;;;;;;;-128.00;-1.00;-1.00;18465;298;7504416;-36
2023/08/24 10:57:18;;;;;;;0.80;0.70;;;;;;;-128.00;-1.00;-1.00;18477;286;7504528;-36
2023/08/24 10:59:44;;;;;;;1.70;1.10;;;;;;;-128.00;-1.00;-1.00;18491;341;7504942;-32
2023/08/24 11:02:18;;;;;;;1.80;1.00;;;;;;;-128.00;-1.00;-1.00;18463;297;7505892;-32
2023/08/24 11:05:08;;;;;;;7.90;1.20;;;;;;;-128.00;-1.00;-1.00;18455;298;7504477;-36
2023/08/24 11:07:34;;;;;;;1.50;0.90;;;;;;;-128.00;-1.00;-1.00;18489;297;7505840;-36
2023/08/24 11:10:11;;;;;;;1.60;0.90;;;;;;;-128.00;-1.00;-1.00;18865;298;7505149;-32
2023/08/24 11:13:10;;;;;;;1.50;0.80;;;;;;;-128.00;-1.00;-1.00;18458;297;7504617;-32
2023/08/24 11:15:41;;;;;;;2.00;0.60;;;;;;;-128.00;-1.00;-1.00;18472;298;7504361;-32
2023/08/24 11:18:22;;;;;;;0.90;0.70;;;;;;;-128.00;-1.00;-1.00;18463;349;7505009;-35
2023/08/24 11:20:53;;;;;;;1.10;0.90;;;;;;;-128.00;-1.00;-1.00;18460;297;7504645;-32
2023/08/24 11:23:19;;;;;;;6.50;1.30;;;;;;;-128.00;-1.00;-1.00;18489;297;7504705;-35
2023/08/24 11:25:45;;;;;;;2.00;1.10;;;;;;;-128.00;-1.00;-1.00;18473;297;7505276;-32
2023/08/24 11:28:16;;;;;;;1.40;1.10;;;;;;;-128.00;-1.00;-1.00;18472;301;7504883;-32
2023/08/24 11:30:42;;;;;;;2.40;1.50;;;;;;;-128.00;-1.00;-1.00;18465;298;7504675;-36
2023/08/24 11:33:08;;;;;;;1.20;0.60;;;;;;;-128.00;-1.00;-1.00;18476;297;7506202;-32
2023/08/24 11:35:37;;;;;;;3.40;1.10;;;;;;;-128.00;-1.00;-1.00;18876;297;7504514;-32
2023/08/24 11:38:04;;;;;;;1.10;1.00;;;;;;;-128.00;-1.00;-1.00;18466;349;7505630;-35
2023/08/24 11:40:30;;;;;;;0.80;0.70;;;;;;;-128.00;-1.00;-1.00;18475;290;7506064;-36
2023/08/24 11:42:56;;;;;;;2.10;1.00;;;;;;;-128.00;-1.00;-1.00;18466;297;7504866;-36
2023/08/24 11:45:22;;;;;;;2.00;1.90;;;;;;;-128.00;-1.00;-1.00;18440;297;7505343;-32
2023/08/24 11:47:48;;;;;;;2.00;1.10;;;;;;;-128.00;-1.00;-1.00;18464;297;7505101;-32
2023/08/24 11:50:14;;;;;;;3.00;0.90;;;;;;;-128.00;-1.00;-1.00;18454;299;7506653;-32
2023/08/24 11:52:41;;;;;;;1.10;0.90;;;;;;;-128.00;-1.00;-1.00;18484;297;7506571;-35
2023/08/24 11:55:08;;;;;;;3.00;1.20;;;;;;;-128.00;-1.00;-1.00;18483;297;7504242;-32
2023/08/24 11:57:35;;;;;;;1.70;0.90;;;;;;;-128.00;-1.00;-1.00;18486;297;7504453;-36
2023/08/24 12:00:01;;;;;;;1.00;0.60;;;;;;;-128.00;-1.00;-1.00;18474;349;7504750;-35
2023/08/24 12:02:27;;;;;;;6.10;1.20;;;;;;;-128.00;-1.00;-1.00;18459;297;7504632;-31
2023/08/24 12:04:53;;;;;;;1.30;0.90;;;;;;;-128.00;-1.00;-1.00;18469;337;7506308;-32
2023/08/24 12:07:20;;;;;;;0.60;0.60;;;;;;;-128.00;-1.00;-1.00;18464;297;7506139;-36
2023/08/24 12:09:46;;;;;;;1.60;0.70;;;;;;;-128.00;-1.00;-1.00;18491;321;7504550;-32
2023/08/24 12:12:15;;;;;;;1.50;1.00;;;;;;;-128.00;-1.00;-1.00;18471;297;7504706;-35
2023/08/24 12:14:42;;;;;;;1.10;0.90;;;;;;;-128.00;-1.00;-1.00;18507;349;7504564;-31